This is the latest recevied weather packets stored in our database for station/object N8GD. If no packets are shown the sender has not sent any weather packets the latest 10 day(s).
| Time | Temp. | Humidity | Pressure | Rain* | Wind** | Luminosity | Snow |
|---|---|---|---|---|---|---|---|
| 1777877503 | 6.11° C | 82% | 1013.4 hPa | 0 mm | - | - | - |
| 1777877322 | 6.11° C | 83% | 1013.4 hPa | 0 mm | - | - | - |
| 1777876421 | 6.11° C | 83% | 1013.5 hPa | 0 mm | - | - | - |
| 1777875522 | 6.11° C | 81% | 1013.6 hPa | 0 mm | - | - | - |
| 1777874621 | 6.11° C | 79% | 1013.7 hPa | 0 mm | - | - | - |
| 1777873905 | 6.67° C | 79% | 1013.7 hPa | 0 mm | - | - | - |
| 1777873722 | 6.67° C | 78% | 1013.7 hPa | 0 mm | - | - | - |
| 1777872821 | 6.67° C | 79% | 1014.2 hPa | 0 mm | - | - | - |
| 1777871922 | 6.67° C | 79% | 1014.2 hPa | 0 mm | - | - | - |
| 1777871021 | 7.22° C | 79% | 1014.2 hPa | 0 mm | - | - | - |
| 1777870312 | 7.22° C | 79% | 1014.2 hPa | 0 mm | - | - | - |
| 1777870122 | 7.22° C | 79% | 1014.2 hPa | 0 mm | - | - | - |
| 1777869221 | 7.78° C | 76% | 1014.3 hPa | 0 mm | - | - | - |
| 1777868322 | 7.78° C | 73% | 1014.3 hPa | 0 mm | - | - | - |
| 1777867421 | 7.78° C | 72% | 1014.4 hPa | 0 mm | - | - | - |
| 1777866522 | 7.22° C | 73% | 1014.7 hPa | 0 mm | - | - | - |
| 1777865621 | 6.67° C | 73% | 1014.7 hPa | 0 mm | - | - | - |
| 1777864905 | 5.56° C | 78% | 1014.5 hPa | 0 mm | - | - | - |
| 1777864722 | 5.56° C | 78% | 1014.5 hPa | 0 mm | - | - | - |
| 1777863821 | 5.56° C | 79% | 1014.6 hPa | 0 mm | - | - | - |
| 1777862921 | 5.56° C | 76% | 1014.5 hPa | 0 mm | - | - | - |
| 1777862022 | 6.11° C | 73% | 1014.6 hPa | 0 mm | - | - | - |
| 1777861305 | 6.67° C | 72% | 1014.8 hPa | 0 mm | - | - | - |
| 1777861121 | 6.67° C | 71% | 1014.8 hPa | 0 mm | - | - | - |
| 1777860223 | 7.22° C | 69% | 1014.7 hPa | 0 mm | - | - | - |
* Rain latest hour (hover to see other rain measurements)
** Current wind speed in m/s (hover to see current wind gust speed)